createdAt,value
2023-06-07T05:31:26.022Z,500.00
2023-06-07T05:32:26.858Z,500.00
2023-06-07T05:33:25.875Z,500.00
2023-06-07T05:34:26.825Z,500.00
2023-06-07T05:35:26.899Z,500.00
2023-06-07T05:36:26.825Z,400.00
2023-06-07T05:37:25.847Z,400.00
2023-06-07T05:38:25.799Z,400.00
2023-06-07T05:39:26.833Z,400.00
2023-06-07T05:40:25.801Z,400.00
2023-06-07T05:41:26.805Z,400.00
2023-06-07T05:42:26.785Z,400.00
2023-06-07T05:43:26.779Z,400.00
2023-06-07T05:44:25.775Z,400.00
2023-06-07T05:45:26.773Z,400.00
2023-06-07T05:46:26.814Z,400.00
2023-06-07T05:47:26.865Z,400.00
2023-06-07T05:48:25.742Z,400.00
2023-06-07T05:49:26.750Z,400.00
2023-06-07T05:50:26.725Z,400.00
2023-06-07T05:51:25.718Z,400.00
2023-06-07T05:52:26.737Z,400.00
2023-06-07T05:53:26.711Z,400.00
2023-06-07T05:54:25.707Z,400.00
2023-06-07T05:55:25.694Z,400.00
2023-06-07T05:56:26.730Z,400.00
2023-06-07T05:57:26.671Z,400.00
2023-06-07T05:58:26.686Z,400.00
2023-06-07T05:59:25.649Z,400.00
2023-06-07T06:00:26.642Z,400.00
2023-06-07T06:01:27.619Z,400.00
2023-06-07T06:02:26.815Z,400.00
2023-06-07T06:03:26.717Z,400.00
2023-06-07T06:04:26.632Z,400.00
2023-06-07T06:05:26.610Z,400.00
2023-06-07T06:06:26.617Z,400.00
2023-06-07T06:07:26.601Z,400.00
2023-06-07T06:08:26.648Z,400.00
2023-06-07T06:09:26.650Z,400.00
2023-06-07T06:10:26.860Z,400.00
2023-06-07T06:11:26.657Z,426.00
2023-06-07T06:12:26.738Z,479.00
2023-06-07T06:13:25.779Z,505.00
2023-06-07T06:14:26.827Z,502.00
2023-06-07T06:15:25.863Z,504.00
2023-06-07T06:16:26.928Z,509.00
2023-06-07T06:17:26.918Z,499.00
2023-06-07T06:18:25.929Z,500.00
2023-06-07T06:19:26.955Z,509.00
2023-06-07T06:20:25.944Z,536.00
2023-06-07T06:21:26.934Z,509.00
2023-06-07T06:22:26.925Z,519.00
2023-06-07T06:23:26.972Z,500.00
2023-06-07T06:24:25.938Z,506.00
2023-06-07T06:25:26.932Z,500.00
2023-06-07T06:26:26.062Z,518.00
2023-06-07T06:27:27.031Z,545.00
2023-06-07T06:28:26.991Z,559.00
2023-06-07T06:29:27.027Z,532.00
2023-06-07T06:30:27.037Z,500.00
2023-06-07T06:31:27.078Z,506.00
2023-06-07T06:32:26.175Z,500.00
2023-06-07T06:33:27.103Z,501.00
2023-06-07T06:34:27.182Z,507.00
2023-06-07T06:35:27.297Z,523.00
2023-06-07T06:36:27.272Z,548.00
2023-06-07T06:37:27.306Z,547.00
2023-06-07T06:38:27.364Z,542.00
2023-06-07T06:39:27.418Z,525.00
2023-06-07T06:40:27.561Z,500.00
2023-06-07T06:41:27.511Z,503.00
2023-06-07T06:42:26.564Z,505.00
2023-06-07T06:43:27.598Z,500.00
2023-06-07T06:44:27.635Z,500.00
2023-06-07T06:45:27.694Z,506.00
2023-06-07T06:46:27.724Z,500.00
2023-06-07T06:47:27.754Z,510.00
2023-06-07T06:48:27.785Z,528.00
2023-06-07T06:49:27.835Z,528.00
2023-06-07T06:50:33.028Z,519.00
2023-06-07T06:51:28.102Z,496.00
2023-06-07T06:52:27.884Z,441.00
2023-06-07T06:53:27.879Z,430.00
2023-06-07T06:54:27.861Z,401.00
2023-06-07T06:55:27.913Z,400.00
2023-06-07T06:56:28.578Z,430.00
2023-06-07T06:57:27.865Z,478.00
2023-06-07T06:58:27.839Z,504.00
2023-06-07T06:59:26.850Z,513.00
2023-06-07T07:00:27.829Z,517.00
2023-06-07T07:01:27.863Z,500.00
2023-06-07T07:02:26.910Z,500.00
2023-06-07T07:03:27.804Z,501.00
2023-06-07T07:04:27.882Z,500.00
2023-06-07T07:05:30.269Z,512.00
2023-06-07T07:06:27.782Z,512.00
2023-06-07T07:07:26.853Z,512.00
2023-06-07T07:08:27.756Z,498.00
2023-06-07T07:09:27.785Z,493.00
2023-06-07T07:10:26.751Z,488.00
2023-06-07T07:11:26.775Z,500.00
2023-06-07T07:12:27.741Z,500.00
2023-06-07T07:13:27.736Z,513.00
2023-06-07T07:14:26.759Z,523.00
2023-06-07T07:15:26.720Z,531.00
2023-06-07T07:16:26.745Z,550.00
2023-06-07T07:17:27.751Z,523.00
2023-06-07T07:18:27.702Z,501.00
2023-06-07T07:19:27.717Z,500.00
2023-06-07T07:20:26.697Z,506.00
2023-06-07T07:21:26.680Z,509.00
2023-06-07T07:22:29.000Z,487.00
2023-06-07T07:23:27.996Z,505.00
2023-06-07T07:24:27.787Z,509.00
2023-06-07T07:25:27.767Z,508.00
2023-06-07T07:26:26.780Z,518.00
2023-06-07T07:27:27.841Z,533.00
2023-06-07T07:28:27.795Z,533.00
2023-06-07T07:29:28.943Z,526.00
2023-06-07T07:30:26.783Z,541.00
2023-06-07T07:31:27.828Z,531.00
2023-06-07T07:32:27.896Z,522.00
2023-06-07T07:33:27.811Z,501.00
2023-06-07T07:34:26.885Z,500.00
2023-06-07T07:35:27.796Z,501.00
2023-06-07T07:36:27.802Z,503.00
2023-06-07T07:37:27.847Z,492.00
2023-06-07T07:38:27.832Z,500.00
2023-06-07T07:39:26.888Z,500.00
2023-06-07T07:40:26.864Z,509.00
2023-06-07T07:41:27.878Z,502.00
2023-06-07T07:42:27.852Z,516.00
2023-06-07T07:43:30.435Z,501.00
2023-06-07T07:44:27.082Z,497.00
2023-06-07T07:45:27.110Z,504.00
2023-06-07T07:46:28.625Z,509.00
2023-06-07T07:47:28.188Z,529.00
2023-06-07T07:48:28.158Z,562.00
2023-06-07T07:49:28.205Z,575.00
2023-06-07T07:50:28.214Z,588.00
2023-06-07T07:51:27.266Z,607.00
2023-06-07T07:52:28.591Z,602.00
2023-06-07T07:53:28.419Z,653.00
2023-06-07T07:54:28.398Z,660.00
2023-06-07T07:55:27.407Z,741.00
2023-06-07T07:56:28.421Z,832.00
2023-06-07T07:57:27.465Z,993.00
2023-06-07T07:58:27.521Z,1081.00
2023-06-07T07:59:27.574Z,1220.00
2023-06-07T08:00:28.601Z,1268.00
2023-06-07T08:01:27.625Z,1234.00
2023-06-07T08:02:27.735Z,1229.00
2023-06-07T08:03:28.787Z,1216.00
2023-06-07T08:04:27.676Z,1298.00
2023-06-07T08:05:28.668Z,1321.00
2023-06-07T08:06:27.752Z,1338.00
2023-06-07T08:07:28.798Z,1343.00
2023-06-07T08:08:28.836Z,1364.00
2023-06-07T08:09:28.889Z,1374.00
2023-06-07T08:10:28.998Z,1368.00
2023-06-07T08:11:29.194Z,1458.00
2023-06-07T08:12:29.079Z,1469.00
2023-06-07T08:13:29.113Z,1426.00
2023-06-07T08:14:28.159Z,1395.00
2023-06-07T08:15:28.206Z,1421.00
2023-06-07T08:16:29.278Z,1468.00
2023-06-07T08:17:29.300Z,1505.00
2023-06-07T08:18:29.298Z,1482.00
2023-06-07T08:19:29.334Z,1434.00
2023-06-07T08:20:29.378Z,1421.00
2023-06-07T08:21:29.404Z,1411.00
2023-06-07T08:22:29.416Z,1410.00
2023-06-07T08:23:29.527Z,1423.00
2023-06-07T08:24:29.482Z,1408.00
2023-06-07T08:25:28.523Z,1394.00
2023-06-07T08:26:29.550Z,1432.00
2023-06-07T08:27:29.616Z,1452.00
2023-06-07T08:28:29.627Z,1428.00
2023-06-07T08:29:29.619Z,1413.00
2023-06-07T08:30:29.649Z,1409.00
2023-06-07T08:31:29.654Z,1389.00
2023-06-07T08:32:28.695Z,1380.00
2023-06-07T08:33:29.659Z,1431.00
2023-06-07T08:34:31.850Z,1450.00
2023-06-07T08:35:29.747Z,1453.00
2023-06-07T08:36:29.792Z,1454.00
2023-06-07T08:37:29.785Z,1471.00
2023-06-07T08:38:28.766Z,1477.00
2023-06-07T08:39:29.763Z,1555.00
2023-06-07T08:40:29.753Z,1449.00
2023-06-07T08:41:29.777Z,1147.00
2023-06-07T08:42:30.124Z,1194.00
2023-06-07T08:43:30.004Z,1201.00
2023-06-07T08:44:29.615Z,1414.00
2023-06-07T08:45:30.008Z,1498.00
2023-06-07T08:46:29.014Z,1664.00
2023-06-07T08:47:29.093Z,1659.00
2023-06-07T08:48:29.058Z,1692.00
2023-06-07T08:49:29.088Z,1620.00
2023-06-07T08:50:30.120Z,1453.00
2023-06-07T08:51:30.191Z,1123.00
2023-06-07T08:52:30.234Z,945.00
2023-06-07T08:53:30.271Z,948.00
2023-06-07T08:54:30.322Z,1010.00
2023-06-07T08:55:30.345Z,1098.00
2023-06-07T08:56:30.506Z,1130.00
2023-06-07T08:57:29.687Z,1174.00
2023-06-07T08:58:30.510Z,1220.00
2023-06-07T08:59:29.748Z,1281.00
2023-06-07T09:00:29.563Z,1342.00
2023-06-07T09:01:31.783Z,1332.00
2023-06-07T09:02:29.646Z,1344.00
2023-06-07T09:03:30.744Z,1460.00
2023-06-07T09:04:30.612Z,1482.00
2023-06-07T09:05:30.584Z,1415.00
2023-06-07T09:06:30.576Z,1439.00
2023-06-07T09:07:30.580Z,1500.00
2023-06-07T09:08:30.581Z,1588.00
2023-06-07T09:09:31.967Z,1629.00
2023-06-07T09:10:30.554Z,1629.00
2023-06-07T09:11:29.578Z,1600.00
2023-06-07T09:12:30.569Z,1653.00
2023-06-07T09:13:30.535Z,1671.00
2023-06-07T09:14:30.520Z,1721.00
2023-06-07T09:15:31.937Z,1726.00
2023-06-07T09:16:29.657Z,1729.00
2023-06-07T09:17:30.563Z,1741.00
2023-06-07T09:18:30.545Z,1761.00
2023-06-07T09:19:30.493Z,1733.00
2023-06-07T09:20:30.490Z,1746.00
2023-06-07T09:21:30.477Z,1695.00
2023-06-07T09:22:30.512Z,1732.00
2023-06-07T09:23:30.512Z,1694.00
2023-06-07T09:24:30.473Z,1772.00
2023-06-07T09:25:29.462Z,1836.00
2023-06-07T09:26:30.461Z,1777.00
2023-06-07T09:27:30.467Z,1697.00
2023-06-07T09:28:29.418Z,1808.00
2023-06-07T09:29:30.512Z,1686.00
2023-06-07T09:30:30.414Z,1645.00
2023-06-07T09:31:29.507Z,1617.00
2023-06-07T09:32:32.723Z,1618.00
2023-06-07T09:33:30.514Z,1584.00
2023-06-07T09:34:30.395Z,1580.00
2023-06-07T09:35:30.421Z,1572.00
2023-06-07T09:36:29.440Z,1503.00
2023-06-07T09:37:30.366Z,1552.00
2023-06-07T09:38:30.375Z,1493.00
2023-06-07T09:39:30.371Z,1487.00
2023-06-07T09:40:29.353Z,1440.00
2023-06-07T09:41:30.350Z,1411.00
2023-06-07T09:42:30.357Z,1478.00
2023-06-07T09:43:30.346Z,1472.00
2023-06-07T09:44:29.314Z,1410.00
2023-06-07T09:45:30.365Z,1387.00
2023-06-07T09:46:30.354Z,1435.00
2023-06-07T09:47:30.878Z,1446.00
2023-06-07T09:48:30.390Z,1442.00
2023-06-07T09:49:29.377Z,1302.00
2023-06-07T09:50:29.273Z,1287.00
2023-06-07T09:51:29.291Z,1270.00
2023-06-07T09:52:31.080Z,1330.00
2023-06-07T09:53:29.249Z,1315.00
2023-06-07T09:54:29.265Z,1459.00
2023-06-07T09:55:29.270Z,1448.00
2023-06-07T09:56:29.397Z,1186.00
2023-06-07T09:57:30.340Z,996.00
2023-06-07T09:58:29.342Z,1093.00
2023-06-07T09:59:30.363Z,1270.00
2023-06-07T10:00:30.433Z,1284.00
2023-06-07T10:01:29.545Z,1425.00
2023-06-07T10:02:30.721Z,1233.00
2023-06-07T10:03:30.783Z,1136.00
2023-06-07T10:04:29.773Z,1010.00
2023-06-07T10:05:30.780Z,828.00
2023-06-07T10:06:29.802Z,706.00
2023-06-07T10:07:29.864Z,676.00
2023-06-07T10:08:30.908Z,676.00
2023-06-07T10:09:30.936Z,592.00
2023-06-07T10:10:30.930Z,545.00
2023-06-07T10:11:29.946Z,500.00
2023-06-07T10:12:31.078Z,520.00
2023-06-07T10:13:31.021Z,511.00
2023-06-07T10:14:31.035Z,531.00
2023-06-07T10:15:31.089Z,487.00
2023-06-07T10:16:30.087Z,535.00
2023-06-07T10:17:31.086Z,536.00
2023-06-07T10:18:31.144Z,500.00
2023-06-07T10:19:30.119Z,507.00
2023-06-07T10:20:31.101Z,498.00
2023-06-07T10:21:31.154Z,491.00
2023-06-07T10:22:31.138Z,504.00
2023-06-07T10:23:30.326Z,548.00
2023-06-07T10:24:31.205Z,543.00
2023-06-07T10:25:31.149Z,597.00
2023-06-07T10:26:31.155Z,605.00
2023-06-07T10:27:31.228Z,623.00
2023-06-07T10:28:31.243Z,631.00
2023-06-07T10:29:30.316Z,620.00
2023-06-07T10:30:30.340Z,639.00
2023-06-07T10:31:31.404Z,634.00
2023-06-07T10:32:30.500Z,708.00
2023-06-07T10:33:31.433Z,770.00
2023-06-07T10:34:31.454Z,830.00
2023-06-07T10:35:31.554Z,700.00
2023-06-07T10:36:30.468Z,762.00
2023-06-07T10:37:31.428Z,723.00
2023-06-07T10:38:31.466Z,671.00
2023-06-07T10:39:30.468Z,645.00
2023-06-07T10:40:31.522Z,637.00
2023-06-07T10:41:30.567Z,605.00
2023-06-07T10:42:30.605Z,601.00
2023-06-07T10:43:31.645Z,639.00
2023-06-07T10:44:30.675Z,648.00
2023-06-07T10:45:31.668Z,689.00
2023-06-07T10:46:30.861Z,889.00
2023-06-07T10:47:31.804Z,997.00
2023-06-07T10:48:31.760Z,1032.00
2023-06-07T10:49:30.733Z,1035.00
2023-06-07T10:50:31.725Z,1068.00
2023-06-07T10:51:31.872Z,1125.00
2023-06-07T10:52:30.750Z,1183.00
2023-06-07T10:53:31.736Z,1221.00
2023-06-07T10:54:30.780Z,1233.00
2023-06-07T10:55:31.727Z,1306.00
2023-06-07T10:56:31.777Z,1285.00
2023-06-07T10:57:31.733Z,1329.00
2023-06-07T10:58:31.786Z,1383.00
2023-06-07T10:59:31.733Z,1382.00
2023-06-07T11:00:30.866Z,1412.00
2023-06-07T11:01:30.792Z,1447.00
2023-06-07T11:02:32.045Z,1447.00
2023-06-07T11:03:32.065Z,1493.00
2023-06-07T11:04:30.908Z,1540.00
2023-06-07T11:05:33.846Z,1569.00
2023-06-07T11:06:31.759Z,1602.00
2023-06-07T11:07:30.829Z,1627.00
2023-06-07T11:08:30.740Z,1654.00
2023-06-07T11:09:31.709Z,1681.00
2023-06-07T11:10:31.794Z,1705.00
2023-06-07T11:11:30.715Z,1737.00
2023-06-07T11:12:30.730Z,1766.00
2023-06-07T11:13:31.706Z,1782.00
2023-06-07T11:14:30.757Z,1810.00
2023-06-07T11:15:30.710Z,1808.00
2023-06-07T11:16:31.698Z,1823.00
2023-06-07T11:17:31.685Z,1832.00
2023-06-07T11:18:30.689Z,1862.00
2023-06-07T11:19:31.700Z,1891.00
2023-06-07T11:20:31.723Z,1908.00
2023-06-07T11:21:31.666Z,1920.00
2023-06-07T11:22:30.629Z,1932.00
2023-06-07T11:23:30.802Z,1950.00
2023-06-07T11:24:31.741Z,1945.00
2023-06-07T11:25:31.622Z,1958.00
2023-06-07T11:26:31.620Z,1980.00
2023-06-07T11:27:31.605Z,1982.00
2023-06-07T11:28:30.657Z,1996.00
2023-06-07T11:29:31.578Z,2004.00
2023-06-07T11:30:30.568Z,2016.00
2023-06-07T11:31:31.590Z,2024.00
2023-06-07T11:32:32.368Z,2035.00
2023-06-07T11:33:31.706Z,2035.00
2023-06-07T11:34:31.576Z,2047.00
2023-06-07T11:35:30.539Z,2057.00
2023-06-07T11:36:30.548Z,2060.00
2023-06-07T11:37:31.521Z,2062.00
2023-06-07T11:38:31.525Z,2077.00
2023-06-07T11:39:31.577Z,2080.00
2023-06-07T11:40:30.504Z,2092.00
2023-06-07T11:41:31.510Z,2091.00
2023-06-07T11:42:30.486Z,2091.00
2023-06-07T11:43:31.491Z,2098.00
2023-06-07T11:44:31.472Z,2106.00
2023-06-07T11:45:31.525Z,2109.00
2023-06-07T11:46:30.499Z,2125.00
2023-06-07T11:47:31.564Z,2127.00
2023-06-07T11:48:31.770Z,2131.00
2023-06-07T11:49:31.442Z,2131.00
2023-06-07T11:50:31.420Z,2135.00
2023-06-07T11:51:31.422Z,2149.00
2023-06-07T11:52:31.440Z,2142.00
2023-06-07T11:53:31.413Z,2146.00
2023-06-07T11:54:31.389Z,2145.00
2023-06-07T11:55:31.425Z,2155.00
2023-06-07T11:56:31.414Z,2156.00
2023-06-07T11:57:31.407Z,2150.00
2023-06-07T11:58:31.479Z,2146.00
2023-06-07T11:59:31.435Z,2147.00
2023-06-07T12:00:30.569Z,2144.00
2023-06-07T12:01:30.515Z,2166.00
2023-06-07T12:02:30.576Z,2157.00
2023-06-07T12:03:31.697Z,2170.00
2023-06-07T12:04:30.700Z,2170.00
2023-06-07T12:05:31.766Z,2172.00
2023-06-07T12:06:30.832Z,2174.00
2023-06-07T12:07:31.871Z,2166.00
2023-06-07T12:08:31.856Z,2178.00
2023-06-07T12:09:30.913Z,2155.00
2023-06-07T12:10:30.980Z,2162.00
2023-06-07T12:11:32.134Z,2155.00
2023-06-07T12:12:32.082Z,2185.00
2023-06-07T12:13:31.135Z,2196.00
2023-06-07T12:14:32.181Z,2154.00
2023-06-07T12:15:31.293Z,2193.00
2023-06-07T12:16:31.406Z,2176.00
2023-06-07T12:17:32.459Z,2174.00
2023-06-07T12:18:32.457Z,2154.00
2023-06-07T12:19:32.480Z,2167.00
2023-06-07T12:20:31.544Z,2189.00
2023-06-07T12:21:32.601Z,2178.00
2023-06-07T12:22:31.676Z,2169.00
2023-06-07T12:23:32.823Z,2169.00
2023-06-07T12:24:32.772Z,2185.00
2023-06-07T12:25:31.892Z,2183.00
2023-06-07T12:26:32.915Z,2146.00
2023-06-07T12:27:33.025Z,2165.00
2023-06-07T12:28:33.052Z,2181.00
2023-06-07T12:29:33.106Z,2127.00
2023-06-07T12:30:33.049Z,2176.00
2023-06-07T12:31:33.259Z,2184.00
2023-06-07T12:32:32.316Z,2177.00
2023-06-07T12:33:33.367Z,2154.00
2023-06-07T12:34:32.404Z,2188.00
2023-06-07T12:35:33.487Z,2181.00
2023-06-07T12:36:32.526Z,2158.00
2023-06-07T12:37:33.603Z,2169.00
2023-06-07T12:38:33.651Z,2161.00
2023-06-07T12:39:32.751Z,2142.00
2023-06-07T12:40:32.816Z,2126.00
2023-06-07T12:41:34.283Z,2156.00
2023-06-07T12:42:32.924Z,2148.00
2023-06-07T12:43:33.045Z,2147.00
2023-06-07T12:44:34.043Z,2148.00
2023-06-07T12:45:34.097Z,2125.00
2023-06-07T12:46:34.205Z,2135.00
2023-06-07T12:47:33.230Z,2143.00
2023-06-07T12:48:33.258Z,2156.00
2023-06-07T12:49:34.369Z,2145.00
2023-06-07T12:50:34.372Z,2141.00
2023-06-07T12:51:33.423Z,2120.00
2023-06-07T12:52:34.486Z,2129.00
2023-06-07T12:53:34.532Z,2128.00
2023-06-07T12:54:34.569Z,2096.00
2023-06-07T12:55:33.634Z,2142.00
2023-06-07T12:56:33.691Z,2084.00
2023-06-07T12:57:33.715Z,2122.00
2023-06-07T12:58:34.777Z,2122.00
2023-06-07T12:59:34.901Z,2138.00
2023-06-07T13:00:34.848Z,2136.00
2023-06-07T13:01:34.993Z,2105.00
2023-06-07T13:02:35.015Z,2073.00
2023-06-07T13:03:34.107Z,2088.00
2023-06-07T13:04:35.079Z,2103.00
2023-06-07T13:05:34.105Z,2128.00
2023-06-07T13:06:35.142Z,2106.00
2023-06-07T13:07:35.195Z,2092.00
2023-06-07T13:08:35.208Z,2098.00
2023-06-07T13:09:35.414Z,2072.00
2023-06-07T13:10:34.273Z,2096.00
2023-06-07T13:11:35.303Z,2115.00
2023-06-07T13:12:34.336Z,2038.00
2023-06-07T13:13:35.396Z,2022.00
2023-06-07T13:14:35.485Z,1990.00
2023-06-07T13:15:34.625Z,1968.00
2023-06-07T13:16:34.609Z,1862.00
2023-06-07T13:17:35.953Z,1883.00
2023-06-07T13:18:35.665Z,1813.00
2023-06-07T13:19:34.660Z,1790.00
2023-06-07T13:20:35.712Z,1767.00
2023-06-07T13:21:34.758Z,1766.00
2023-06-07T13:22:35.815Z,1713.00
2023-06-07T13:23:35.919Z,1698.00
2023-06-07T13:24:35.888Z,1689.00
2023-06-07T13:25:35.959Z,1635.00
2023-06-07T13:26:35.964Z,1624.00
2023-06-07T13:27:35.002Z,1607.00
2023-06-07T13:28:36.039Z,1569.00
2023-06-07T13:29:35.120Z,1556.00
2023-06-07T13:30:36.127Z,1594.00
2023-06-07T13:31:36.218Z,1601.00
2023-06-07T13:32:35.332Z,1623.00
2023-06-07T13:33:35.222Z,1637.00
2023-06-07T13:34:35.263Z,1653.00
2023-06-07T13:35:37.940Z,1659.00
2023-06-07T13:36:35.287Z,1673.00
2023-06-07T13:37:35.264Z,1714.00
2023-06-07T13:38:36.265Z,1704.00
2023-06-07T13:39:36.245Z,1753.00
2023-06-07T13:40:36.252Z,1750.00
2023-06-07T13:41:36.241Z,1773.00
2023-06-07T13:42:36.240Z,1775.00
2023-06-07T13:43:51.304Z,1771.00
2023-06-07T13:44:36.225Z,1772.00
2023-06-07T13:45:36.234Z,1776.00
2023-06-07T13:46:35.274Z,1790.00
2023-06-07T13:47:35.291Z,1800.00
2023-06-07T13:48:35.213Z,1819.00
2023-06-07T13:49:36.193Z,1837.00
2023-06-07T13:50:36.156Z,1849.00
2023-06-07T13:51:35.214Z,1853.00
2023-06-07T13:52:36.169Z,1855.00
2023-06-07T13:53:35.200Z,1866.00
2023-06-07T13:54:36.227Z,1863.00
2023-06-07T13:55:36.124Z,1855.00
2023-06-07T13:56:36.139Z,1878.00
2023-06-07T13:57:35.114Z,1870.00
2023-06-07T13:58:35.150Z,1899.00
2023-06-07T13:59:36.180Z,1875.00
2023-06-07T14:00:35.216Z,1887.00
2023-06-07T14:01:35.353Z,1883.00
2023-06-07T14:02:36.507Z,1903.00
2023-06-07T14:03:36.484Z,1906.00
2023-06-07T14:04:36.402Z,1910.00
2023-06-07T14:05:36.579Z,1918.00
2023-06-07T14:06:35.356Z,1905.00
2023-06-07T14:07:35.441Z,1905.00
2023-06-07T14:08:35.418Z,1914.00
2023-06-07T14:09:36.544Z,1897.00
2023-06-07T14:10:35.591Z,1913.00
2023-06-07T14:11:36.521Z,1915.00
2023-06-07T14:12:35.520Z,1923.00
2023-06-07T14:13:36.556Z,1925.00
2023-06-07T14:14:36.602Z,1917.00
2023-06-07T14:15:35.614Z,1935.00
2023-06-07T14:16:36.700Z,1935.00
2023-06-07T14:17:35.694Z,1920.00
2023-06-07T14:18:35.683Z,1927.00
2023-06-07T14:19:35.755Z,1935.00
2023-06-07T14:20:35.754Z,1943.00
2023-06-07T14:21:36.799Z,1928.00
2023-06-07T14:22:36.788Z,1955.00
2023-06-07T14:23:36.811Z,1950.00
2023-06-07T14:24:35.843Z,1947.00
2023-06-07T14:25:35.869Z,1937.00
2023-06-07T14:26:36.891Z,1937.00
2023-06-07T14:27:36.888Z,1954.00
2023-06-07T14:28:35.953Z,1946.00
2023-06-07T14:29:36.929Z,1938.00
2023-06-07T14:30:36.946Z,1942.00
2023-06-07T14:31:37.034Z,1940.00
2023-06-07T14:32:36.988Z,1948.00
2023-06-07T14:33:36.967Z,1940.00
2023-06-07T14:34:36.983Z,1947.00
2023-06-07T14:35:37.018Z,1935.00
2023-06-07T14:36:37.783Z,1938.00
2023-06-07T14:37:36.999Z,1950.00
2023-06-07T14:38:37.045Z,1954.00
2023-06-07T14:39:37.032Z,1955.00
2023-06-07T14:40:36.990Z,1958.00
2023-06-07T14:41:36.969Z,1932.00
2023-06-07T14:42:37.112Z,1964.00
2023-06-07T14:43:35.966Z,1955.00
2023-06-07T14:44:35.965Z,1955.00
2023-06-07T14:45:36.017Z,1935.00
2023-06-07T14:46:35.940Z,1939.00
2023-06-07T14:47:35.944Z,1946.00
2023-06-07T14:48:36.941Z,1936.00
2023-06-07T14:49:35.914Z,1948.00
2023-06-07T14:50:35.924Z,1929.00
2023-06-07T14:51:35.934Z,1952.00
2023-06-07T14:52:36.895Z,1937.00
2023-06-07T14:53:36.915Z,1935.00
2023-06-07T14:54:36.901Z,1944.00
2023-06-07T14:55:35.888Z,1936.00
2023-06-07T14:56:35.869Z,1923.00
2023-06-07T14:57:35.861Z,1942.00
2023-06-07T14:58:35.851Z,1912.00
2023-06-07T14:59:37.089Z,1935.00
2023-06-07T15:00:35.864Z,1932.00
2023-06-07T15:01:35.869Z,1923.00
2023-06-07T15:02:35.848Z,1931.00
2023-06-07T15:03:35.907Z,1920.00
2023-06-07T15:04:35.831Z,1925.00
2023-06-07T15:05:36.804Z,1919.00
2023-06-07T15:06:35.785Z,1900.00
2023-06-07T15:07:35.828Z,1926.00
2023-06-07T15:08:35.810Z,1929.00
2023-06-07T15:09:35.809Z,1920.00
2023-06-07T15:10:35.800Z,1925.00
2023-06-07T15:11:36.816Z,1914.00
2023-06-07T15:12:35.761Z,1899.00
2023-06-07T15:13:36.767Z,1918.00
2023-06-07T15:14:35.746Z,1922.00
2023-06-07T15:15:36.761Z,1926.00
2023-06-07T15:16:36.841Z,1922.00
2023-06-07T15:17:36.756Z,1909.00
2023-06-07T15:18:35.723Z,1890.00
2023-06-07T15:19:36.711Z,1909.00
2023-06-07T15:20:35.688Z,1914.00
2023-06-07T15:21:35.734Z,1903.00
2023-06-07T15:22:36.710Z,1909.00
2023-06-07T15:23:35.731Z,1905.00
2023-06-07T15:24:35.684Z,1903.00
2023-06-07T15:25:35.679Z,1903.00
2023-06-07T15:26:36.656Z,1901.00
2023-06-07T15:27:35.637Z,1899.00
2023-06-07T15:28:36.648Z,1917.00
2023-06-07T15:29:36.665Z,1893.00
2023-06-07T15:30:35.629Z,1892.00
2023-06-07T15:31:36.645Z,1892.00
2023-06-07T15:32:35.676Z,1904.00
2023-06-07T15:33:35.600Z,1899.00
2023-06-07T15:34:36.589Z,1906.00
2023-06-07T15:35:36.601Z,1884.00
2023-06-07T15:36:36.605Z,1889.00
2023-06-07T15:37:35.574Z,1889.00
2023-06-07T15:38:35.562Z,1879.00
2023-06-07T15:39:36.602Z,1877.00
2023-06-07T15:40:35.561Z,1883.00
2023-06-07T15:41:36.564Z,1899.00
2023-06-07T15:42:36.542Z,1895.00
2023-06-07T15:43:36.561Z,1886.00
2023-06-07T15:44:36.530Z,1882.00
2023-06-07T15:45:36.545Z,1907.00
2023-06-07T15:46:38.261Z,1875.00
2023-06-07T15:47:35.579Z,1876.00
2023-06-07T15:48:36.513Z,1877.00
2023-06-07T15:49:36.494Z,1881.00
2023-06-07T15:50:35.502Z,1887.00
2023-06-07T15:51:35.480Z,1872.00
2023-06-07T15:52:36.486Z,1872.00
2023-06-07T15:53:36.475Z,1887.00
2023-06-07T15:54:35.487Z,1888.00
2023-06-07T15:55:35.552Z,1873.00
2023-06-07T15:56:36.445Z,1884.00
2023-06-07T15:57:35.435Z,1879.00
2023-06-07T15:58:35.442Z,1876.00
2023-06-07T15:59:36.428Z,1899.00
2023-06-07T16:00:38.861Z,1866.00
2023-06-07T16:01:36.480Z,1867.00
2023-06-07T16:02:36.415Z,1870.00
2023-06-07T16:03:50.670Z,1870.00
2023-06-07T16:04:36.494Z,1867.00
2023-06-07T16:05:36.384Z,1870.00
2023-06-07T16:06:36.374Z,1876.00
2023-06-07T16:07:36.387Z,1879.00
2023-06-07T16:08:35.344Z,1873.00
2023-06-07T16:09:35.343Z,1878.00
2023-06-07T16:10:36.325Z,1867.00
2023-06-07T16:11:35.359Z,1873.00
2023-06-07T16:12:36.315Z,1850.00
2023-06-07T16:13:36.318Z,1856.00
2023-06-07T16:14:36.330Z,1854.00
2023-06-07T16:15:35.285Z,1857.00
2023-06-07T16:16:36.398Z,1861.00
2023-06-07T16:17:36.350Z,1858.00
2023-06-07T16:18:35.293Z,1865.00
2023-06-07T16:19:35.288Z,1863.00
2023-06-07T16:20:36.258Z,1857.00
2023-06-07T16:21:35.256Z,1865.00
2023-06-07T16:22:35.259Z,1854.00
2023-06-07T16:23:35.282Z,1863.00
2023-06-07T16:24:35.271Z,1865.00
2023-06-07T16:25:36.385Z,1858.00
2023-06-07T16:26:35.235Z,1863.00
2023-06-07T16:27:35.234Z,1872.00
2023-06-07T16:28:35.199Z,1866.00
2023-06-07T16:29:35.213Z,1882.00
2023-06-07T16:30:37.955Z,1860.00
2023-06-07T16:31:36.314Z,1861.00
2023-06-07T16:32:36.209Z,1865.00
2023-06-07T16:33:36.171Z,1864.00
2023-06-07T16:34:36.163Z,1857.00
2023-06-07T16:35:36.163Z,1858.00
2023-06-07T16:36:35.160Z,1868.00
2023-06-07T16:37:35.152Z,1864.00
2023-06-07T16:38:36.143Z,1851.00
2023-06-07T16:39:35.148Z,1862.00
2023-06-07T16:40:35.122Z,1865.00
2023-06-07T16:42:35.136Z,1836.00
2023-06-07T16:43:35.145Z,1836.00
2023-06-07T16:44:35.181Z,1844.00
2023-06-07T16:45:36.089Z,1840.00
2023-06-07T16:46:36.126Z,1848.00
2023-06-07T16:47:35.122Z,1827.00
2023-06-07T16:48:36.073Z,1844.00
2023-06-07T16:49:35.113Z,1844.00
2023-06-07T16:50:36.047Z,1829.00
2023-06-07T16:51:35.043Z,1841.00
2023-06-07T16:52:35.027Z,1853.00
2023-06-07T16:53:36.049Z,1841.00
2023-06-07T16:54:35.039Z,1831.00
2023-06-07T16:55:35.366Z,1836.00
2023-06-07T16:56:36.006Z,1852.00
2023-06-07T16:57:38.850Z,1853.00
2023-06-07T16:58:34.996Z,1853.00
2023-06-07T16:59:35.018Z,1851.00
2023-06-07T17:00:35.987Z,1855.00
2023-06-07T17:01:36.049Z,1847.00
2023-06-07T17:02:35.163Z,1854.00
2023-06-07T17:03:36.077Z,1844.00
2023-06-07T17:04:34.954Z,1850.00
2023-06-07T17:05:34.987Z,1848.00
2023-06-07T17:06:34.948Z,1835.00
2023-06-07T17:07:34.931Z,1830.00
2023-06-07T17:08:34.950Z,1826.00
2023-06-07T17:09:35.918Z,1820.00
2023-06-07T17:10:35.919Z,1826.00
2023-06-07T17:11:35.894Z,1819.00
2023-06-07T17:12:35.903Z,1813.00
2023-06-07T17:13:34.888Z,1828.00
2023-06-07T17:14:35.895Z,1845.00
2023-06-07T17:15:35.904Z,1831.00
2023-06-07T17:16:35.947Z,1828.00
2023-06-07T17:17:36.026Z,1827.00
2023-06-07T17:18:34.862Z,1826.00
2023-06-07T17:19:34.856Z,1814.00
2023-06-07T17:20:34.870Z,1820.00
2023-06-07T17:21:35.861Z,1805.00
2023-06-07T17:22:34.818Z,1814.00
2023-06-07T17:23:35.861Z,1827.00
2023-06-07T17:24:35.903Z,1817.00
2023-06-07T17:25:34.848Z,1814.00
2023-06-07T17:26:35.881Z,1820.00
2023-06-07T17:27:34.902Z,1825.00
2023-06-07T17:28:35.916Z,1809.00
2023-06-07T17:29:34.948Z,1819.00
2023-06-07T17:30:34.944Z,1810.00
2023-06-07T17:31:36.032Z,1809.00
2023-06-07T17:32:36.096Z,1802.00
2023-06-07T17:33:35.003Z,1793.00
2023-06-07T17:34:36.028Z,1805.00
2023-06-07T17:35:35.020Z,1792.00
2023-06-07T17:36:35.031Z,1783.00
2023-06-07T17:37:36.059Z,1793.00
2023-06-07T17:38:36.074Z,1793.00
2023-06-07T17:39:35.116Z,1783.00
2023-06-07T17:40:36.103Z,1788.00
2023-06-07T17:41:36.115Z,1791.00
2023-06-07T17:42:35.159Z,1807.00
2023-06-07T17:43:36.172Z,1786.00